Time;durP1;ratioP1;P1;durP2;ratioP2;P2;SDS_P1;SDS_P2;PMS_P1;PMS_P2;Temp;Humidity;BMP_temperature;BMP_pressure;BME280_temperature;BME280_humidity;BME280_pressure;Samples;Min_cycle;Max_cycle;Signal;HPM_P1;HPM_P2
2022/03/23 00:01:25;;;;;;;26.23;18.80;;;;;;;3.07;83.71;97047.56;5037225;28;24444;-75
2022/03/23 00:03:52;;;;;;;20.38;17.98;;;;;;;3.17;83.09;97052.59;5037118;28;24470;-76
2022/03/23 00:06:18;;;;;;;24.65;17.67;;;;;;;3.17;82.42;97047.47;5037109;28;24427;-75
2022/03/23 00:08:46;;;;;;;21.50;18.13;;;;;;;3.21;82.31;97049.13;5037161;28;24470;-75
2022/03/23 00:11:13;;;;;;;22.38;17.15;;;;;;;3.17;81.64;97047.47;5037066;28;24438;-75
2022/03/23 00:13:39;;;;;;;22.25;18.02;;;;;;;3.09;82.41;97047.56;5036809;28;24419;-75
2022/03/23 00:16:06;;;;;;;20.13;17.58;;;;;;;3.04;82.00;97046.75;5037115;28;24780;-74
2022/03/23 00:18:33;;;;;;;21.48;16.75;;;;;;;3.06;81.83;97045.03;5037072;28;24456;-75
2022/03/23 00:21:00;;;;;;;18.65;16.70;;;;;;;3.10;82.62;97046.69;5036893;28;24478;-75
2022/03/23 00:23:26;;;;;;;20.13;16.45;;;;;;;3.16;85.38;97051.75;5036851;28;24471;-75
2022/03/23 00:25:54;;;;;;;22.63;16.55;;;;;;;3.29;84.94;97047.28;5037011;28;24499;-75
2022/03/23 00:28:21;;;;;;;19.63;16.45;;;;;;;3.06;82.05;97047.59;5036722;28;25010;-76
2022/03/23 00:30:48;;;;;;;25.53;15.83;;;;;;;2.88;80.08;97046.13;5036895;28;24422;-75
2022/03/23 00:33:15;;;;;;;18.58;14.77;;;;;;;2.56;81.75;97052.47;5036962;28;24503;-75
2022/03/23 00:35:43;;;;;;;17.67;14.90;;;;;;;2.46;83.28;97044.91;5036998;28;24870;-75
2022/03/23 00:38:09;;;;;;;19.30;15.82;;;;;;;2.39;83.55;97046.66;5037154;28;24833;-75
2022/03/23 00:40:38;;;;;;;20.47;18.00;;;;;;;2.27;86.39;97054.47;5036931;28;24489;-75
2022/03/23 00:43:06;;;;;;;22.20;17.50;;;;;;;2.10;89.62;97052.91;5036673;28;24538;-75
2022/03/23 00:45:32;;;;;;;22.65;16.98;;;;;;;2.14;89.89;97056.28;5036778;28;24473;-75
2022/03/23 00:47:58;;;;;;;19.38;16.70;;;;;;;2.25;89.88;97054.47;5036901;28;24470;-75
2022/03/23 00:50:26;;;;;;;18.58;16.65;;;;;;;2.33;89.03;97055.22;5036865;28;24415;-75
2022/03/23 00:52:52;;;;;;;24.77;17.63;;;;;;;2.39;88.19;97052.63;5036860;28;24447;-75
2022/03/23 00:55:19;;;;;;;20.92;16.20;;;;;;;2.41;88.19;97050.91;5032876;28;24435;-75
2022/03/23 00:57:45;;;;;;;22.13;16.65;;;;;;;2.47;87.89;97047.44;5033154;28;24941;-75
2022/03/23 01:00:17;;;;;;;18.95;15.70;;;;;;;2.50;88.11;97046.56;5032069;28;25069;-75
2022/03/23 01:02:46;;;;;;;19.88;16.52;;;;;;;2.50;87.51;97044.00;5021576;28;24599;-75
2022/03/23 01:05:13;;;;;;;17.42;15.40;;;;;;;2.40;87.39;97038.97;5033146;28;24490;-75
2022/03/23 01:07:41;;;;;;;17.38;13.48;;;;;;;2.30;90.33;97044.19;5033411;28;24477;-76
2022/03/23 01:10:11;;;;;;;15.23;13.15;;;;;;;2.32;90.98;97039.91;5033325;28;24436;-75
2022/03/23 01:12:38;;;;;;;16.13;13.45;;;;;;;2.33;90.81;97047.56;5033329;28;24506;-74
2022/03/23 01:15:05;;;;;;;16.20;14.03;;;;;;;1.95;94.44;97042.81;5033224;28;24466;-75
2022/03/23 01:17:33;;;;;;;14.50;13.07;;;;;;;1.87;96.67;97040.31;5027859;28;24439;-75
2022/03/23 01:20:00;;;;;;;16.38;13.55;;;;;;;1.96;96.05;97044.50;5032716;28;24462;-76
2022/03/23 01:22:26;;;;;;;15.63;13.73;;;;;;;1.99;93.72;97047.03;5032681;28;24426;-76
2022/03/23 01:24:52;;;;;;;17.08;13.82;;;;;;;2.03;94.25;97037.63;5069077;23;24467;-75
2022/03/23 01:27:19;;;;;;;15.48;13.13;;;;;;;2.06;91.59;97043.56;5029789;28;24439;-75
2022/03/23 01:29:45;;;;;;;15.73;14.13;;;;;;;2.15;90.66;97040.94;5024982;28;24526;-75
2022/03/23 01:32:12;;;;;;;18.13;14.40;;;;;;;2.21;91.03;97041.72;5032825;28;24408;-76
2022/03/23 01:34:40;;;;;;;17.45;14.52;;;;;;;2.12;88.75;97038.41;5032462;28;24435;-74
2022/03/23 01:37:07;;;;;;;15.38;13.82;;;;;;;2.04;88.22;97040.19;5032374;28;24995;-75
2022/03/23 01:39:34;;;;;;;16.45;13.45;;;;;;;1.94;88.18;97036.84;5032211;28;24470;-75
2022/03/23 01:42:00;;;;;;;17.77;14.32;;;;;;;1.96;88.96;97033.44;5032634;28;24474;-76
2022/03/23 01:44:27;;;;;;;18.83;14.60;;;;;;;2.07;91.08;97036.75;5032309;28;24965;-75
2022/03/23 01:47:08;;;;;;;14.60;13.10;;;;;;;2.07;91.57;97029.91;5032317;28;24426;-75
2022/03/23 01:49:36;;;;;;;14.95;13.35;;;;;;;1.93;93.37;97036.88;5032350;28;24438;-75
2022/03/23 01:52:06;;;;;;;18.98;14.07;;;;;;;2.02;92.17;97036.78;5032419;28;24812;-75
2022/03/23 01:54:33;;;;;;;14.80;13.25;;;;;;;2.02;91.04;97039.34;5032189;28;24430;-75
2022/03/23 01:57:00;;;;;;;17.42;14.98;;;;;;;1.94;88.91;97041.13;5032120;28;24478;-75
2022/03/23 01:59:27;;;;;;;16.95;14.75;;;;;;;1.84;90.20;97037.78;5032325;28;24424;-75
2022/03/23 02:01:54;;;;;;;18.70;15.18;;;;;;;1.80;90.28;97033.56;5031923;28;24458;-75
2022/03/23 02:04:21;;;;;;;19.13;15.65;;;;;;;1.69;92.83;97030.25;5031936;28;24440;-75
2022/03/23 02:06:48;;;;;;;20.48;15.13;;;;;;;1.60;91.55;97035.44;5031498;28;24937;-75
2022/03/23 02:09:16;;;;;;;17.05;14.77;;;;;;;1.52;92.24;97043.16;5031318;28;24839;-75
2022/03/23 02:11:43;;;;;;;18.05;16.08;;;;;;;1.50;92.40;97037.19;5032117;28;24424;-75
2022/03/23 02:14:10;;;;;;;19.70;15.70;;;;;;;1.51;91.99;97027.84;5031909;28;24454;-75
2022/03/23 02:16:40;;;;;;;16.73;14.93;;;;;;;1.50;92.90;97029.53;5031720;28;24420;-75
2022/03/23 02:19:07;;;;;;;18.17;15.23;;;;;;;1.59;94.38;97029.47;5031512;28;24948;-75
2022/03/23 02:21:34;;;;;;;24.38;15.35;;;;;;;1.62;93.28;97037.09;5031888;28;24501;-75
2022/03/23 02:24:03;;;;;;;19.38;16.02;;;;;;;1.61;92.33;97032.88;5031640;28;24435;-75
2022/03/23 02:26:30;;;;;;;18.17;16.20;;;;;;;1.64;91.13;97029.44;5031719;28;24464;-75
2022/03/23 02:28:56;;;;;;;17.33;15.52;;;;;;;1.65;90.13;97031.97;5031403;28;24419;-74
2022/03/23 02:31:23;;;;;;;18.17;14.93;;;;;;;1.74;90.36;97040.44;5031518;28;24458;-75
2022/03/23 02:33:49;;;;;;;16.63;14.85;;;;;;;1.77;88.92;97025.94;5031311;28;24659;-75
2022/03/23 02:36:15;;;;;;;16.87;14.80;;;;;;;1.76;88.59;97036.16;5031683;28;24427;-75
2022/03/23 02:38:42;;;;;;;19.53;16.43;;;;;;;1.65;89.43;97026.88;5031445;28;24836;-75
2022/03/23 02:41:11;;;;;;;19.83;16.08;;;;;;;1.49;91.56;97029.56;5031273;28;24554;-75
2022/03/23 02:43:37;;;;;;;17.40;14.95;;;;;;;1.45;90.57;97027.03;5031266;28;24428;-75
2022/03/23 02:46:05;;;;;;;18.10;16.17;;;;;;;1.38;91.24;97034.75;5031271;28;24415;-76
2022/03/23 02:48:31;;;;;;;23.27;17.88;;;;;;;1.33;91.42;97032.19;5031159;28;24998;-75
2022/03/23 02:50:58;;;;;;;18.95;17.02;;;;;;;1.13;92.75;97032.31;5031526;28;24411;-75
2022/03/23 03:02:00;;;;;;;19.13;15.65;;;;;;;0.99;95.69;97030.69;5031031;28;25003;-75
2022/03/23 03:04:26;;;;;;;17.27;15.40;;;;;;;1.01;95.66;97032.41;5031168;28;24482;-75
2022/03/23 03:06:53;;;;;;;18.33;15.63;;;;;;;1.05;94.63;97033.22;5030870;28;24459;-74
2022/03/23 03:09:20;;;;;;;16.50;14.73;;;;;;;1.00;94.08;97029.84;5030486;28;25023;-76
2022/03/23 03:11:48;;;;;;;18.13;15.32;;;;;;;0.93;94.71;97034.16;5031212;28;24454;-75
2022/03/23 03:14:15;;;;;;;18.27;16.23;;;;;;;0.86;96.42;97033.31;5030862;28;24435;-75
2022/03/23 03:16:41;;;;;;;19.70;15.70;;;;;;;0.90;96.65;97040.09;5030257;28;24963;-75
2022/03/23 03:19:10;;;;;;;18.10;15.43;;;;;;;0.88;96.22;97040.94;5030594;28;24889;-75
2022/03/23 03:21:37;;;;;;;18.90;15.52;;;;;;;0.87;96.79;97036.72;5030623;28;24973;-75
2022/03/23 03:24:04;;;;;;;17.20;15.35;;;;;;;0.89;96.87;97033.31;5030814;28;24427;-74
2022/03/23 03:26:31;;;;;;;16.80;15.10;;;;;;;0.92;96.80;97040.06;5030764;28;24416;-75
2022/03/23 03:28:59;;;;;;;18.87;16.87;;;;;;;0.99;95.49;97036.66;5030506;28;24431;-76
2022/03/23 03:31:26;;;;;;;20.70;17.08;;;;;;;0.96;94.08;97042.63;5030626;28;24422;-74
2022/03/23 03:33:52;;;;;;;22.65;17.50;;;;;;;0.83;95.10;97045.22;5030456;28;24427;-75
2022/03/23 03:36:19;;;;;;;21.42;17.52;;;;;;;0.85;94.12;97051.16;5030409;28;24424;-76
2022/03/23 03:38:45;;;;;;;21.10;18.10;;;;;;;0.80;93.78;97051.19;5030640;28;24970;-75
2022/03/23 03:41:12;;;;;;;28.00;19.60;;;;;;;0.77;95.35;97046.09;5030506;28;24904;-74
2022/03/23 03:43:39;;;;;;;21.37;17.73;;;;;;;0.83;95.39;97050.34;5030493;28;24936;-75
2022/03/23 03:46:08;;;;;;;22.17;18.00;;;;;;;0.91;95.27;97046.88;5030460;28;24423;-75
2022/03/23 03:48:35;;;;;;;23.25;17.58;;;;;;;1.00;94.74;97040.88;5030379;28;24416;-75
2022/03/23 03:51:01;;;;;;;20.85;16.60;;;;;;;1.07;93.37;97049.34;5030185;28;24485;-75
2022/03/23 03:53:28;;;;;;;20.65;17.17;;;;;;;1.09;92.88;97058.72;5030488;28;24419;-75
2022/03/23 03:55:54;;;;;;;18.65;16.63;;;;;;;1.04;92.92;97052.81;5030423;28;24432;-75
2022/03/23 03:58:21;;;;;;;18.60;15.97;;;;;;;0.99;92.31;97044.28;5030398;28;24509;-75
2022/03/23 04:00:47;;;;;;;18.73;16.70;;;;;;;0.90;93.19;97046.91;5029928;28;24992;-74
2022/03/23 04:03:15;;;;;;;19.42;16.75;;;;;;;0.83;93.13;97058.84;5030117;28;24420;-75
2022/03/23 04:05:41;;;;;;;20.42;16.85;;;;;;;0.82;94.30;97056.28;5030379;28;24435;-75
2022/03/23 04:08:08;;;;;;;19.13;16.52;;;;;;;0.80;94.01;97058.00;5030300;28;24416;-75
2022/03/23 04:10:35;;;;;;;22.38;17.92;;;;;;;0.66;93.86;97051.22;5030123;28;24412;-75
2022/03/23 04:13:02;;;;;;;21.77;18.35;;;;;;;0.57;94.80;97050.44;5030386;28;24478;-75
2022/03/23 04:15:28;;;;;;;20.92;15.82;;;;;;;0.42;95.24;97056.41;5030141;28;24419;-76
2022/03/23 04:17:55;;;;;;;19.30;16.40;;;;;;;0.37;95.76;97055.56;5030002;28;24419;-74
2022/03/23 04:20:24;;;;;;;18.65;15.73;;;;;;;0.39;96.50;97048.78;5030144;28;24821;-75
2022/03/23 04:22:50;;;;;;;20.20;16.60;;;;;;;0.32;97.81;97054.72;5029831;28;24985;-74
2022/03/23 04:25:18;;;;;;;20.08;17.95;;;;;;;0.30;97.97;97048.78;5030165;28;24434;-75
2022/03/23 04:27:46;;;;;;;18.55;16.65;;;;;;;0.28;98.53;97061.53;5030027;28;24420;-75
2022/03/23 04:30:13;;;;;;;18.57;16.07;;;;;;;0.34;98.57;97055.59;5032038;28;24436;-74
2022/03/23 04:32:39;;;;;;;24.92;17.83;;;;;;;0.14;99.58;97061.53;5033696;28;24454;-75
2022/03/23 04:35:06;;;;;;;18.73;16.73;;;;;;;0.19;99.92;97070.06;5033820;28;24440;-74
2022/03/23 04:37:34;;;;;;;19.90;16.73;;;;;;;0.36;99.36;97066.63;5033679;28;24411;-75
2022/03/23 04:40:01;;;;;;;21.33;17.17;;;;;;;0.47;95.78;97064.88;5033537;28;24420;-75
2022/03/23 04:42:27;;;;;;;18.30;16.17;;;;;;;0.43;97.18;97064.03;5033592;28;24920;-75
2022/03/23 04:44:54;;;;;;;23.27;16.00;;;;;;;0.42;97.42;97071.72;5033566;28;24481;-74
2022/03/23 04:47:20;;;;;;;18.33;16.42;;;;;;;0.43;96.26;97070.84;5033444;28;24501;-74
2022/03/23 04:49:46;;;;;;;22.05;15.55;;;;;;;0.48;96.14;97066.56;5033423;28;24470;-75
2022/03/23 04:52:13;;;;;;;16.85;14.88;;;;;;;0.47;95.81;97065.72;5033496;28;24960;-75
2022/03/23 04:54:41;;;;;;;17.33;15.15;;;;;;;0.51;96.59;97071.66;5033179;28;24980;-75
2022/03/23 04:57:07;;;;;;;29.02;15.15;;;;;;;0.59;96.02;97067.41;5033232;28;24968;-75
2022/03/23 04:59:34;;;;;;;18.75;14.20;;;;;;;0.64;95.35;97070.81;5033003;28;24801;-75
2022/03/23 05:02:00;;;;;;;16.52;14.43;;;;;;;0.60;95.16;97069.13;5033102;28;25034;-74
2022/03/23 05:04:27;;;;;;;18.95;16.83;;;;;;;0.61;93.63;97068.25;5033216;28;24435;-75
2022/03/23 05:06:53;;;;;;;23.35;17.90;;;;;;;0.51;95.07;97084.41;5033118;28;24416;-75
2022/03/23 05:09:19;;;;;;;22.45;17.50;;;;;;;0.42;96.33;97081.91;5033017;28;24431;-75
2022/03/23 05:11:47;;;;;;;20.87;17.43;;;;;;;0.43;96.71;97089.53;5033075;28;24448;-75
2022/03/23 05:14:15;;;;;;;18.08;16.20;;;;;;;0.45;95.79;97087.00;5032749;28;24458;-75
2022/03/23 05:16:42;;;;;;;21.13;16.92;;;;;;;0.45;95.85;97079.34;5032908;28;24979;-75
2022/03/23 05:19:09;;;;;;;20.50;17.05;;;;;;;0.53;94.87;97075.06;5032568;28;24419;-76
2022/03/23 05:21:35;;;;;;;21.67;16.58;;;;;;;0.57;97.98;97084.41;5032930;28;24451;-73
2022/03/23 05:24:01;;;;;;;20.02;17.23;;;;;;;0.46;94.82;97086.97;5032704;28;24423;-72
2022/03/23 05:26:28;;;;;;;21.83;16.37;;;;;;;0.44;93.85;97086.13;5032728;28;24447;-72
2022/03/23 05:28:56;;;;;;;18.03;16.13;;;;;;;0.43;94.56;97084.44;5031876;28;24952;-72
2022/03/23 05:31:22;;;;;;;19.98;16.15;;;;;;;0.46;94.99;97092.06;5032680;28;24424;-74
2022/03/23 05:33:49;;;;;;;26.45;15.80;;;;;;;0.53;94.16;97094.63;5032724;28;24470;-75
2022/03/23 05:36:16;;;;;;;17.52;15.68;;;;;;;0.59;94.05;97086.94;5032664;28;24447;-73
2022/03/23 05:38:43;;;;;;;20.63;16.02;;;;;;;0.63;92.95;97092.06;5032745;28;24431;-74
2022/03/23 05:41:09;;;;;;;17.42;15.02;;;;;;;0.67;92.62;97090.34;5031829;28;24415;-74
2022/03/23 05:43:36;;;;;;;17.90;15.48;;;;;;;0.63;92.07;97091.19;5032251;28;24586;-74
2022/03/23 05:46:03;;;;;;;17.45;15.13;;;;;;;0.66;93.58;97086.91;5032452;28;24817;-74
2022/03/23 05:48:30;;;;;;;18.58;15.07;;;;;;;0.76;94.09;97092.00;5032582;28;24438;-74
2022/03/23 05:50:56;;;;;;;21.00;15.40;;;;;;;0.80;94.11;97099.63;5032145;28;24439;-74
2022/03/23 05:53:23;;;;;;;19.93;16.10;;;;;;;0.88;94.54;97097.06;5032259;28;24423;-75
2022/03/23 05:55:49;;;;;;;23.50;16.23;;;;;;;0.93;95.07;97093.66;5031988;28;25010;-75
2022/03/23 05:58:17;;;;;;;17.25;15.43;;;;;;;0.91;94.47;97091.94;5032213;28;24967;-73
2022/03/23 06:00:43;;;;;;;18.25;15.25;;;;;;;0.91;95.14;97100.44;5031872;28;24991;-74
2022/03/23 06:03:11;;;;;;;23.10;16.45;;;;;;;1.01;94.23;97097.88;5031985;28;24589;-74
2022/03/23 06:05:38;;;;;;;19.50;15.23;;;;;;;0.92;94.17;97097.03;5032008;28;24451;-74
2022/03/23 06:08:05;;;;;;;21.42;15.65;;;;;;;0.82;97.61;97097.09;5031961;28;24979;-73
2022/03/23 06:10:31;;;;;;;22.93;17.40;;;;;;;0.89;98.15;97093.66;5031525;28;24427;-74
2022/03/23 06:12:58;;;;;;;20.65;16.33;;;;;;;0.99;97.03;97090.22;5032085;28;24419;-74
2022/03/23 06:15:24;;;;;;;23.92;17.42;;;;;;;1.15;96.21;97093.53;5031985;28;24447;-73
2022/03/23 06:17:51;;;;;;;23.30;16.95;;;;;;;1.19;96.86;97092.69;5035711;28;24423;-76
2022/03/23 06:20:19;;;;;;;22.77;17.17;;;;;;;1.21;97.94;97085.88;5029770;28;24441;-76
2022/03/23 06:22:45;;;;;;;16.88;14.93;;;;;;;1.32;97.75;97093.47;5011258;28;24455;-76
2022/03/23 06:25:12;;;;;;;22.45;16.90;;;;;;;1.50;97.18;97095.94;5011017;28;24425;-76
2022/03/23 06:27:38;;;;;;;18.45;16.45;;;;;;;1.62;97.03;97098.41;5011558;28;24428;-75
2022/03/23 06:30:07;;;;;;;17.23;15.38;;;;;;;1.70;96.75;97104.28;5028563;28;24523;-74
2022/03/23 06:32:33;;;;;;;18.75;16.40;;;;;;;1.79;96.23;97102.56;5028961;28;24435;-74
2022/03/23 06:35:00;;;;;;;21.67;17.53;;;;;;;1.91;95.95;97110.97;5011744;28;24548;-75
2022/03/23 06:37:30;;;;;;;24.83;18.02;;;;;;;1.97;96.68;97107.53;5011747;28;24431;-75
2022/03/23 06:39:57;;;;;;;19.35;17.33;;;;;;;2.09;97.45;97107.44;5011867;28;25065;-74
2022/03/23 06:42:23;;;;;;;22.10;18.35;;;;;;;2.28;98.12;97109.84;5011741;28;24455;-74
2022/03/23 06:44:50;;;;;;;25.05;18.75;;;;;;;2.45;98.84;97109.66;5011597;28;24428;-74
2022/03/23 06:47:17;;;;;;;22.27;18.43;;;;;;;2.60;99.28;97107.84;5011479;28;24420;-77
2022/03/23 06:49:43;;;;;;;23.95;17.83;;;;;;;2.73;98.95;97115.38;5011392;28;24420;-72
2022/03/23 06:52:10;;;;;;;25.15;18.42;;;;;;;2.85;98.47;97107.56;5011187;28;24417;-76
2022/03/23 06:54:38;;;;;;;22.23;17.17;;;;;;;2.97;99.31;97104.03;5012509;28;24481;-76
2022/03/23 06:57:05;;;;;;;23.08;16.95;;;;;;;3.15;98.52;97108.91;5011658;28;24973;-76
2022/03/23 06:59:31;;;;;;;19.15;15.90;;;;;;;3.28;95.24;97113.03;5011552;28;24429;-76
2022/03/23 07:01:58;;;;;;;21.17;17.02;;;;;;;3.56;96.79;97113.53;5011656;28;24455;-76
2022/03/23 07:04:25;;;;;;;21.63;17.05;;;;;;;3.78;93.61;97113.19;5011665;28;24439;-74
2022/03/23 07:06:51;;;;;;;18.30;16.40;;;;;;;3.91;91.41;97121.56;5013026;28;24523;-74
2022/03/23 07:09:32;;;;;;;19.42;15.55;;;;;;;4.02;91.05;97117.97;5011105;28;24423;-74
2022/03/23 07:12:01;;;;;;;17.77;15.85;;;;;;;4.20;90.70;97113.44;5011257;28;24417;-74
2022/03/23 07:14:28;;;;;;;18.08;15.80;;;;;;;4.36;88.68;97123.41;5010891;28;24954;-75
2022/03/23 07:16:54;;;;;;;19.25;15.35;;;;;;;4.32;80.14;97121.75;5010979;28;25003;-74
2022/03/23 07:19:21;;;;;;;16.33;14.23;;;;;;;4.47;83.21;97122.38;5010541;28;24424;-75
2022/03/23 07:21:47;;;;;;;24.80;15.90;;;;;;;4.68;82.09;97127.13;5010808;28;24957;-75
2022/03/23 07:24:14;;;;;;;21.13;14.10;;;;;;;4.93;82.90;97121.53;5031220;23;24471;-75
2022/03/23 07:26:40;;;;;;;21.00;14.43;;;;;;;5.19;79.77;97121.03;5030814;28;24473;-74
2022/03/23 07:29:08;;;;;;;18.45;14.48;;;;;;;5.17;76.33;97126.22;5033807;28;24447;-76
2022/03/23 07:31:34;;;;;;;15.20;13.70;;;;;;;5.08;74.85;97131.53;5049870;28;24431;-74
2022/03/23 07:34:02;;;;;;;16.92;14.52;;;;;;;5.08;75.19;97124.69;5050115;28;24875;-74
2022/03/23 07:36:28;;;;;;;16.45;13.07;;;;;;;5.05;74.54;97129.03;5049602;28;25071;-74
2022/03/23 07:38:55;;;;;;;16.85;13.55;;;;;;;5.35;76.21;97125.00;5049870;28;24462;-75
2022/03/23 07:41:22;;;;;;;16.83;12.95;;;;;;;5.74;75.56;97135.31;5050842;28;24435;-74
2022/03/23 07:43:49;;;;;;;21.40;13.80;;;;;;;6.09;74.23;97129.41;5050466;28;24454;-74
2022/03/23 07:46:18;;;;;;;16.52;14.00;;;;;;;6.35;71.43;97133.09;5050208;28;25014;-72
2022/03/23 07:48:45;;;;;;;17.88;14.45;;;;;;;6.60;69.71;97138.47;5050319;28;24511;-74
2022/03/23 07:51:11;;;;;;;17.52;13.32;;;;;;;6.61;69.12;97132.44;5044955;28;24423;-73
2022/03/23 07:53:38;;;;;;;14.68;13.18;;;;;;;6.79;68.03;97135.41;5050053;28;24502;-73
2022/03/23 07:56:04;;;;;;;18.17;13.02;;;;;;;6.26;68.75;97134.16;5050098;28;24430;-74
2022/03/23 07:58:31;;;;;;;15.13;12.70;;;;;;;6.28;68.43;97135.81;5050054;28;24415;-73
2022/03/23 08:00:57;;;;;;;16.98;12.50;;;;;;;6.31;70.10;97134.91;5049780;28;24789;-72
2022/03/23 08:03:25;;;;;;;18.10;13.73;;;;;;;6.67;66.37;97135.69;5050939;28;24984;-73
2022/03/23 08:05:52;;;;;;;15.45;13.82;;;;;;;6.74;67.02;97131.22;5054011;28;24972;-73
2022/03/23 08:08:18;;;;;;;19.52;12.63;;;;;;;6.92;65.66;97135.91;5054342;28;24431;-74
2022/03/23 08:10:45;;;;;;;19.40;13.95;;;;;;;6.96;66.23;97137.50;5053863;28;24956;-73
2022/03/23 08:13:12;;;;;;;17.43;12.50;;;;;;;7.47;66.70;97134.38;5053921;28;24840;-73
2022/03/23 08:15:40;;;;;;;16.00;12.50;;;;;;;7.63;63.21;97133.94;5053779;28;24438;-74
2022/03/23 08:18:07;;;;;;;15.60;12.48;;;;;;;7.91;64.22;97142.56;5054246;28;24432;-74
2022/03/23 08:20:36;;;;;;;15.93;12.20;;;;;;;8.39;63.25;97148.84;5053947;28;20820;-74
2022/03/23 08:23:04;;;;;;;13.43;11.68;;;;;;;8.53;59.78;97149.25;5054012;28;20832;-74
2022/03/23 08:25:30;;;;;;;15.10;12.73;;;;;;;8.78;62.68;97146.69;5053714;28;20837;-74
2022/03/23 08:27:58;;;;;;;13.80;12.37;;;;;;;8.92;59.38;97144.47;5053551;28;20789;-74
2022/03/23 08:30:26;;;;;;;14.80;12.57;;;;;;;8.82;58.62;97143.09;5053845;28;20758;-73
2022/03/23 08:32:52;;;;;;;14.73;13.18;;;;;;;8.76;59.49;97151.06;5054120;28;20846;-74
2022/03/23 08:35:19;;;;;;;14.77;13.00;;;;;;;8.84;60.09;97146.50;5054044;28;24559;-73
2022/03/23 08:37:48;;;;;;;14.95;12.93;;;;;;;8.93;59.94;97145.31;5054336;28;20767;-74
2022/03/23 08:40:14;;;;;;;17.27;12.57;;;;;;;9.23;59.52;97143.41;5053961;28;20832;-73
2022/03/23 08:42:41;;;;;;;20.33;13.55;;;;;;;9.49;58.77;97139.03;5053557;28;24439;-73
2022/03/23 08:45:08;;;;;;;16.40;13.00;;;;;;;9.47;58.55;97139.09;5053805;28;24434;-74
2022/03/23 08:47:35;;;;;;;14.85;12.25;;;;;;;9.66;58.96;97142.69;5054184;28;20767;-74
2022/03/23 08:50:04;;;;;;;14.68;12.65;;;;;;;9.84;58.20;97145.50;5053582;28;24431;-74
2022/03/23 08:52:31;;;;;;;16.53;13.47;;;;;;;9.97;58.45;97145.88;5053309;28;24805;-74
2022/03/23 08:54:58;;;;;;;15.70;13.20;;;;;;;10.05;58.28;97143.81;5053101;28;20846;-73
2022/03/23 08:57:25;;;;;;;15.05;12.93;;;;;;;10.34;57.33;97145.28;5053411;28;24442;-73
2022/03/23 08:59:51;;;;;;;17.87;12.87;;;;;;;10.46;57.91;97141.41;5053427;28;24443;-72
2022/03/23 09:02:18;;;;;;;17.88;12.30;;;;;;;10.37;57.61;97138.25;5053990;28;24804;-74
2022/03/23 09:04:44;;;;;;;15.37;13.23;;;;;;;10.43;57.31;97142.34;5053848;28;24531;-75
2022/03/23 09:07:13;;;;;;;14.40;12.00;;;;;;;10.82;57.04;97142.44;5053110;28;21476;-74
2022/03/23 09:09:39;;;;;;;14.00;11.95;;;;;;;11.05;54.30;97140.63;5053682;28;24443;-74
2022/03/23 09:12:09;;;;;;;16.90;12.30;;;;;;;11.22;53.59;97135.56;5054110;28;24478;-75
2022/03/23 09:14:35;;;;;;;13.70;11.88;;;;;;;11.69;55.16;97143.00;5053040;28;24785;-75
2022/03/23 09:17:02;;;;;;;17.13;11.27;;;;;;;11.74;51.36;97140.19;5053542;28;24431;-74
2022/03/23 09:19:29;;;;;;;15.48;12.50;;;;;;;12.21;50.97;97140.63;5053237;28;24427;-74
2022/03/23 09:21:55;;;;;;;15.95;12.32;;;;;;;12.46;45.62;97140.28;5053482;28;24447;-75
2022/03/23 09:24:22;;;;;;;14.35;11.65;;;;;;;12.44;48.19;97136.09;5052807;28;24785;-75
2022/03/23 09:26:48;;;;;;;13.32;10.68;;;;;;;12.75;50.07;97141.44;5053287;28;24430;-74
2022/03/23 09:29:17;;;;;;;14.40;11.38;;;;;;;12.98;46.84;97136.88;5052810;28;24436;-76
2022/03/23 09:31:43;;;;;;;12.87;11.57;;;;;;;12.94;46.06;97130.13;5053374;28;24435;-74
2022/03/23 09:34:10;;;;;;;15.48;11.98;;;;;;;13.51;47.31;97128.91;5053209;28;24493;-74
2022/03/23 09:39:20;;;;;;;11.95;10.65;;;;;;;14.85;38.08;97135.41;5052579;28;24518;-74
2022/03/23 09:41:48;;;;;;;14.20;11.05;;;;;;;15.07;39.88;97132.41;5052698;28;24441;-74
2022/03/23 09:44:17;;;;;;;14.15;11.05;;;;;;;15.18;36.94;97130.00;5052820;28;24454;-74
2022/03/23 09:46:44;;;;;;;14.88;10.82;;;;;;;15.15;34.92;97126.72;5052382;28;24423;-73
2022/03/23 09:49:11;;;;;;;15.18;10.93;;;;;;;15.39;35.54;97121.81;5052022;28;24514;-74
2022/03/23 09:51:40;;;;;;;11.32;9.60;;;;;;;15.37;32.41;97118.44;5052434;28;24430;-73
2022/03/23 09:54:07;;;;;;;15.20;9.05;;;;;;;15.28;35.64;97124.19;5052213;28;24438;-73
2022/03/23 09:56:34;;;;;;;12.57;9.90;;;;;;;15.29;35.78;97128.50;5052353;28;24416;-72
2022/03/23 09:59:03;;;;;;;10.50;9.00;;;;;;;15.30;35.57;97131.03;5051852;28;24502;-73
2022/03/23 10:02:20;;;;;;;11.30;8.85;;;;;;;15.34;32.29;97126.47;5052191;28;24422;-72
2022/03/23 10:05:44;;;;;;;19.25;10.32;;;;;;;15.63;35.14;97128.13;5051690;28;24897;-72
2022/03/23 10:08:39;;;;;;;14.32;9.25;;;;;;;15.62;36.55;97125.63;5052167;28;24441;-73
2022/03/23 10:11:49;;;;;;;13.43;10.43;;;;;;;15.77;31.39;97124.72;5051831;28;24430;-73
2022/03/23 10:15:00;;;;;;;13.93;10.00;;;;;;;15.72;33.28;97125.00;5051518;28;24465;-73
2022/03/23 10:17:59;;;;;;;14.52;10.15;;;;;;;15.54;31.23;97117.44;5051713;28;24439;-73
2022/03/23 10:20:25;;;;;;;15.88;10.50;;;;;;;15.39;31.65;97119.22;5051160;28;24461;-73
2022/03/23 10:22:53;;;;;;;14.30;10.38;;;;;;;15.55;31.82;97121.72;5051674;28;24427;-75
2022/03/23 10:25:23;;;;;;;13.88;9.38;;;;;;;15.90;34.37;97117.78;5047018;28;24432;-74
2022/03/23 10:27:49;;;;;;;15.80;9.48;;;;;;;15.96;32.08;97116.56;5031351;28;24452;-75
2022/03/23 10:30:17;;;;;;;16.63;9.93;;;;;;;16.13;34.48;97118.09;5031339;28;24420;-74
2022/03/23 10:32:45;;;;;;;14.93;10.00;;;;;;;16.25;36.70;97116.50;5031404;28;24812;-75
2022/03/23 10:35:14;;;;;;;12.82;10.57;;;;;;;15.95;31.16;97115.72;5030975;28;24969;-74
2022/03/23 10:37:41;;;;;;;17.00;10.20;;;;;;;16.29;34.53;97113.59;5031643;28;24439;-74
2022/03/23 10:40:13;;;;;;;18.95;9.73;;;;;;;15.93;32.25;97107.13;5031452;28;24779;-75
2022/03/23 10:42:42;;;;;;;14.75;9.77;;;;;;;16.23;31.55;97113.13;5031211;28;24981;-75
2022/03/23 10:45:11;;;;;;;15.25;9.95;;;;;;;16.20;32.50;97109.78;5030969;28;24525;-75
2022/03/23 10:47:39;;;;;;;14.20;10.35;;;;;;;16.32;35.80;97107.31;5031266;28;24615;-74
2022/03/23 10:50:10;;;;;;;15.50;10.10;;;;;;;16.19;34.07;97108.09;5031010;28;24435;-74
2022/03/23 10:52:47;;;;;;;13.98;10.48;;;;;;;16.11;32.49;97105.13;5031298;28;24428;-74
2022/03/23 10:55:13;;;;;;;16.20;10.93;;;;;;;16.34;34.05;97100.22;5031267;28;24474;-74
2022/03/23 10:58:18;;;;;;;14.27;10.38;;;;;;;16.45;32.79;97101.19;5031492;28;24423;-75
2022/03/23 11:00:44;;;;;;;15.07;10.55;;;;;;;16.51;34.13;97097.34;5030974;28;24455;-73
2022/03/23 11:03:11;;;;;;;17.17;10.82;;;;;;;16.40;36.66;97092.81;5030849;28;24423;-74
2022/03/23 11:05:41;;;;;;;13.80;11.15;;;;;;;16.28;35.60;97087.53;5030825;28;24427;-74
2022/03/23 11:08:09;;;;;;;12.35;9.85;;;;;;;16.02;32.46;97090.06;5030921;28;24812;-74
2022/03/23 11:16:06;;;;;;;17.27;9.40;;;;;;;16.27;32.87;97094.53;5031267;28;24426;-75
2022/03/23 11:18:34;;;;;;;12.73;10.18;;;;;;;16.05;29.93;97073.31;5030602;28;24836;-76
2022/03/23 11:21:02;;;;;;;13.85;9.80;;;;;;;16.29;32.60;97081.38;5030337;28;24424;-75
2022/03/23 11:23:31;;;;;;;12.63;9.43;;;;;;;16.29;32.32;97076.97;5030328;28;24458;-75
2022/03/23 11:25:59;;;;;;;15.23;10.02;;;;;;;16.32;32.65;97082.00;5030547;28;24463;-75
2022/03/23 11:28:28;;;;;;;17.75;11.25;;;;;;;16.12;30.29;97082.44;5030752;28;24486;-75
2022/03/23 11:30:55;;;;;;;15.23;10.35;;;;;;;15.80;29.26;97074.06;5030675;28;24460;-75
2022/03/23 11:33:24;;;;;;;11.87;10.07;;;;;;;15.79;29.71;97070.59;5030104;28;24949;-75
2022/03/23 11:35:52;;;;;;;12.67;9.77;;;;;;;15.85;30.76;97071.97;5030552;28;24442;-74
2022/03/23 11:38:22;;;;;;;15.75;10.25;;;;;;;16.10;33.42;97074.72;5029981;28;24419;-75
2022/03/23 11:40:52;;;;;;;13.80;9.15;;;;;;;15.87;32.32;97065.75;5030302;28;25023;-74
2022/03/23 11:43:20;;;;;;;17.73;9.32;;;;;;;16.10;33.90;97060.81;5030346;28;24474;-74
2022/03/23 11:45:48;;;;;;;11.93;8.57;;;;;;;16.30;32.65;97064.75;5030018;28;24427;-75